Time,TemperatureF,DewpointF,PressureIn,WindDirection,WindDirectionDegrees,WindSpeedMPH,WindSpeedGustMPH,Humidity,HourlyPrecipIn,Conditions,Clouds,dailyrainin,SoftwareType,DateUTC
2013-03-04 00:00:00,32.8,31.8,29.89,North,0,0.0,1.0,96,0.00,,,0.00,WeatherCatV1.14B232,2013-03-04 07:00:00,
2013-03-04 00:05:00,32.8,31.8,29.89,ENE,70,0.0,0.0,96,0.00,,,0.00,WeatherCatV1.14B232,2013-03-04 07:05:00,
2013-03-04 00:10:00,32.8,31.8,29.89,ENE,71,0.0,0.0,96,0.00,,,0.00,WeatherCatV1.14B232,2013-03-04 07:10:00,
2013-03-04 00:15:00,32.8,31.8,29.89,ENE,75,0.0,1.0,96,0.00,,,0.00,WeatherCatV1.14B232,2013-03-04 07:15:00,
2013-03-04 00:20:00,32.8,31.8,29.89,ENE,75,0.0,0.0,96,0.00,,,0.00,WeatherCatV1.14B232,2013-03-04 07:20:00,
2013-03-04 00:25:00,32.7,31.7,29.89,ENE,75,0.0,0.0,96,0.00,,,0.00,WeatherCatV1.14B232,2013-03-04 07:25:00,
2013-03-04 00:30:00,32.7,31.7,29.89,ENE,75,0.0,0.0,96,0.00,,,0.00,WeatherCatV1.14B232,2013-03-04 07:30:00,
2013-03-04 00:35:00,32.7,31.7,29.89,NNE,14,1.0,1.0,96,0.00,,,0.00,WeatherCatV1.14B232,2013-03-04 07:35:00,
2013-03-04 00:40:00,32.7,31.7,29.89,North,349,0.0,0.0,96,0.00,,,0.00,WeatherCatV1.14B232,2013-03-04 07:40:00,
2013-03-04 00:45:00,32.7,31.7,29.89,North,349,0.0,0.0,96,0.00,,,0.00,WeatherCatV1.14B232,2013-03-04 07:45:00,
2013-03-04 00:50:00,32.7,31.7,29.88,North,349,0.0,0.0,96,0.00,,,0.00,WeatherCatV1.14B232,2013-03-04 07:50:00,
2013-03-04 00:55:00,32.7,31.7,29.88,North,349,0.0,0.0,96,0.00,,,0.00,WeatherCatV1.14B232,2013-03-04 07:55:00,
2013-03-04 01:00:00,32.7,31.7,29.88,NNW,348,0.0,0.0,96,0.00,,,0.00,WeatherCatV1.14B232,2013-03-04 08:00:00,
2013-03-04 01:05:00,32.7,31.7,29.88,NNW,348,0.0,0.0,96,0.00,,,0.00,WeatherCatV1.14B232,2013-03-04 08:05:00,
2013-03-04 01:10:00,32.6,31.6,29.88,South,187,0.0,0.0,96,0.00,,,0.00,WeatherCatV1.14B232,2013-03-04 08:10:00,
2013-03-04 01:15:00,32.6,31.6,29.88,South,187,0.0,0.0,96,0.00,,,0.00,WeatherCatV1.14B232,2013-03-04 08:15:00,
2013-03-04 01:20:00,32.6,31.6,29.88,South,187,0.0,0.0,96,0.00,,,0.00,WeatherCatV1.14B232,2013-03-04 08:20:00,
2013-03-04 01:25:00,32.6,31.6,29.88,South,187,0.0,0.0,96,0.00,,,0.00,WeatherCatV1.14B232,2013-03-04 08:25:00,
2013-03-04 01:30:00,32.6,31.6,29.88,South,187,0.0,0.0,96,0.00,,,0.00,WeatherCatV1.14B232,2013-03-04 08:30:00,
2013-03-04 01:35:00,32.6,31.8,29.88,South,187,0.0,0.0,97,0.00,,,0.00,WeatherCatV1.14B232,2013-03-04 08:35:00,
2013-03-04 01:40:00,32.7,31.9,29.88,South,187,0.0,0.0,97,0.00,,,0.00,WeatherCatV1.14B232,2013-03-04 08:40:00,
2013-03-04 01:45:00,32.7,31.9,29.87,South,187,0.0,0.0,97,0.00,,,0.00,WeatherCatV1.14B232,2013-03-04 08:45:00,
2013-03-04 01:50:00,32.7,31.9,29.88,SE,133,0.0,0.0,97,0.00,,,0.00,WeatherCatV1.14B232,2013-03-04 08:50:00,
2013-03-04 01:55:00,32.8,32.0,29.87,ENE,64,0.0,0.0,97,0.00,,,0.00,WeatherCatV1.14B232,2013-03-04 08:55:00,
2013-03-04 02:00:00,32.7,31.9,29.87,ENE,64,0.0,0.0,97,0.00,,,0.00,WeatherCatV1.14B232,2013-03-04 09:00:00,
2013-03-04 02:05:00,32.8,32.0,29.87,North,8,0.0,0.0,97,0.00,,,0.00,WeatherCatV1.14B232,2013-03-04 09:05:00,
2013-03-04 02:10:00,32.7,31.9,29.87,North,8,0.0,0.0,97,0.00,,,0.00,WeatherCatV1.14B232,2013-03-04 09:10:00,
2013-03-04 02:15:00,32.7,31.9,29.87,North,8,0.0,0.0,97,0.00,,,0.00,WeatherCatV1.14B232,2013-03-04 09:15:00,
2013-03-04 02:20:00,32.7,31.9,29.87,North,8,0.0,0.0,97,0.00,,,0.00,WeatherCatV1.14B232,2013-03-04 09:20:00,
2013-03-04 02:25:00,32.7,31.9,29.86,North,8,0.0,0.0,97,0.00,,,0.00,WeatherCatV1.14B232,2013-03-04 09:25:00,
2013-03-04 02:30:00,32.7,31.9,29.86,North,8,0.0,0.0,97,0.00,,,0.00,WeatherCatV1.14B232,2013-03-04 09:30:00,
2013-03-04 02:35:00,32.8,32.0,29.86,North,8,1.0,1.0,97,0.00,,,0.00,WeatherCatV1.14B232,2013-03-04 09:35:00,
2013-03-04 02:40:00,32.8,32.0,29.86,North,357,0.0,1.0,97,0.00,,,0.00,WeatherCatV1.14B232,2013-03-04 09:40:00,
2013-03-04 02:45:00,32.8,32.0,29.86,NW,304,1.0,1.0,97,0.00,,,0.00,WeatherCatV1.14B232,2013-03-04 09:45:00,
2013-03-04 02:50:00,32.8,32.0,29.86,WNW,283,0.0,1.0,97,0.00,,,0.00,WeatherCatV1.14B232,2013-03-04 09:50:00,
2013-03-04 02:55:00,32.8,32.0,29.85,WNW,284,0.0,1.0,97,0.00,,,0.00,WeatherCatV1.14B232,2013-03-04 09:55:00,
2013-03-04 03:00:00,32.8,32.0,29.85,North,356,1.0,2.0,97,0.00,,,0.00,WeatherCatV1.14B232,2013-03-04 10:00:00,
2013-03-04 03:05:00,32.7,31.9,29.85,NW,312,0.0,0.0,97,0.00,,,0.00,WeatherCatV1.14B232,2013-03-04 10:05:00,
2013-03-04 03:10:00,32.7,31.9,29.85,NE,47,0.0,0.0,97,0.00,,,0.00,WeatherCatV1.14B232,2013-03-04 10:10:00,
2013-03-04 03:15:00,32.7,31.9,29.85,ESE,105,0.0,0.0,97,0.00,,,0.00,WeatherCatV1.14B232,2013-03-04 10:15:00,
2013-03-04 03:20:00,32.7,31.9,29.85,SSE,153,0.0,0.0,97,0.00,,,0.00,WeatherCatV1.14B232,2013-03-04 10:20:00,
2013-03-04 03:25:00,32.7,31.9,29.85,SE,138,0.0,1.0,97,0.00,,,0.00,WeatherCatV1.14B232,2013-03-04 10:25:00,
2013-03-04 03:30:00,32.7,31.9,29.85,South,169,0.0,3.0,97,0.00,,,0.00,WeatherCatV1.14B232,2013-03-04 10:30:00,
2013-03-04 03:35:00,32.9,32.1,29.85,WSW,243,2.0,3.0,97,0.00,,,0.00,WeatherCatV1.14B232,2013-03-04 10:35:00,
2013-03-04 03:40:00,33.1,32.3,29.85,East,89,1.0,1.0,97,0.00,,,0.00,WeatherCatV1.14B232,2013-03-04 10:40:00,
2013-03-04 03:45:00,33.1,32.3,29.84,East,88,0.0,1.0,97,0.00,,,0.00,WeatherCatV1.14B232,2013-03-04 10:45:00,
2013-03-04 03:50:00,33.1,32.3,29.84,SE,133,0.0,1.0,97,0.00,,,0.01,WeatherCatV1.14B232,2013-03-04 10:50:00,
2013-03-04 03:55:00,32.9,31.9,29.84,SSW,207,1.0,1.0,96,0.00,,,0.01,WeatherCatV1.14B232,2013-03-04 10:55:00,
2013-03-04 04:00:00,32.8,31.8,29.85,SSW,192,1.0,2.0,96,0.00,,,0.01,WeatherCatV1.14B232,2013-03-04 11:00:00,
2013-03-04 04:05:00,32.7,31.7,29.84,South,175,0.0,1.0,96,0.00,,,0.01,WeatherCatV1.14B232,2013-03-04 11:05:00,
2013-03-04 04:10:00,32.6,31.6,29.85,WSW,242,0.0,0.0,96,0.00,,,0.01,WeatherCatV1.14B232,2013-03-04 11:10:00,
2013-03-04 04:15:00,32.6,31.8,29.85,WSW,242,0.0,0.0,97,0.00,,,0.01,WeatherCatV1.14B232,2013-03-04 11:15:00,
2013-03-04 04:20:00,32.6,31.8,29.85,WSW,242,0.0,0.0,97,0.00,,,0.01,WeatherCatV1.14B232,2013-03-04 11:20:00,
2013-03-04 04:25:00,32.6,31.8,29.85,WSW,242,0.0,0.0,97,0.00,,,0.01,WeatherCatV1.14B232,2013-03-04 11:25:00,
2013-03-04 04:30:00,32.6,31.8,29.85,WSW,243,0.0,0.0,97,0.00,,,0.01,WeatherCatV1.14B232,2013-03-04 11:30:00,
2013-03-04 04:35:00,32.7,31.9,29.84,SE,124,0.0,1.0,97,0.00,,,0.01,WeatherCatV1.14B232,2013-03-04 11:35:00,
2013-03-04 04:40:00,32.7,31.9,29.85,SE,124,0.0,0.0,97,0.00,,,0.01,WeatherCatV1.14B232,2013-03-04 11:40:00,
2013-03-04 04:45:00,32.7,31.9,29.85,SE,143,0.0,0.0,97,0.00,,,0.01,WeatherCatV1.14B232,2013-03-04 11:45:00,
2013-03-04 04:50:00,32.7,31.9,29.85,South,175,1.0,1.0,97,0.00,,,0.01,WeatherCatV1.14B232,2013-03-04 11:50:00,
2013-03-04 04:55:00,32.7,31.9,29.85,WSW,243,1.0,1.0,97,0.00,,,0.01,WeatherCatV1.14B232,2013-03-04 11:55:00,
2013-03-04 05:00:00,32.6,31.8,29.85,SW,229,0.0,0.0,97,0.00,,,0.01,WeatherCatV1.14B232,2013-03-04 12:00:00,
2013-03-04 05:05:00,32.6,31.8,29.85,ENE,74,0.0,0.0,97,0.00,,,0.01,WeatherCatV1.14B232,2013-03-04 12:05:00,
2013-03-04 05:10:00,32.6,31.8,29.85,ENE,74,0.0,0.0,97,0.00,,,0.01,WeatherCatV1.14B232,2013-03-04 12:10:00,
2013-03-04 05:15:00,32.6,31.8,29.85,ENE,74,0.0,0.0,97,0.00,,,0.01,WeatherCatV1.14B232,2013-03-04 12:15:00,
2013-03-04 05:20:00,32.6,31.8,29.85,ENE,74,0.0,1.0,97,0.00,,,0.01,WeatherCatV1.14B232,2013-03-04 12:20:00,
2013-03-04 05:25:00,32.5,31.7,29.85,SW,217,1.0,1.0,97,0.00,,,0.01,WeatherCatV1.14B232,2013-03-04 12:25:00,
2013-03-04 05:30:00,32.5,31.7,29.85,ESE,113,1.0,2.0,97,0.00,,,0.01,WeatherCatV1.14B232,2013-03-04 12:30:00,
2013-03-04 05:35:00,32.5,31.7,29.85,East,80,2.0,2.0,97,0.00,,,0.01,WeatherCatV1.14B232,2013-03-04 12:35:00,
2013-03-04 05:40:00,32.5,31.7,29.85,NNE,17,1.0,2.0,97,0.00,,,0.01,WeatherCatV1.14B232,2013-03-04 12:40:00,
2013-03-04 05:45:00,32.5,31.7,29.85,North,1,1.0,2.0,97,0.00,,,0.01,WeatherCatV1.14B232,2013-03-04 12:45:00,
2013-03-04 05:50:00,32.5,31.7,29.85,NNE,32,0.0,1.0,97,0.00,,,0.01,WeatherCatV1.14B232,2013-03-04 12:50:00,
2013-03-04 05:55:00,32.6,31.8,29.85,SE,146,0.0,2.0,97,0.00,,,0.01,WeatherCatV1.14B232,2013-03-04 12:55:00,
2013-03-04 06:00:00,32.5,31.7,29.85,West,278,0.0,1.0,97,0.00,,,0.01,WeatherCatV1.14B232,2013-03-04 13:00:00,
2013-03-04 06:05:00,32.5,31.7,29.85,NNE,30,0.0,1.0,97,0.00,,,0.01,WeatherCatV1.14B232,2013-03-04 13:05:00,
2013-03-04 06:10:00,32.4,31.6,29.85,SW,224,1.0,2.0,97,0.00,,,0.01,WeatherCatV1.14B232,2013-03-04 13:10:00,
2013-03-04 06:15:00,32.5,31.7,29.85,West,274,1.0,1.0,97,0.00,,,0.01,WeatherCatV1.14B232,2013-03-04 13:15:00,
2013-03-04 06:20:00,32.6,31.8,29.85,West,273,0.0,0.0,97,0.00,,,0.01,WeatherCatV1.14B232,2013-03-04 13:20:00,
2013-03-04 06:25:00,32.7,31.9,29.85,West,270,0.0,1.0,97,0.00,,,0.01,WeatherCatV1.14B232,2013-03-04 13:25:00,
2013-03-04 06:30:00,32.7,31.9,29.85,NW,307,1.0,1.0,97,0.00,,,0.01,WeatherCatV1.14B232,2013-03-04 13:30:00,
2013-03-04 06:35:00,32.8,32.0,29.85,WNW,299,0.0,0.0,97,0.00,,,0.01,WeatherCatV1.14B232,2013-03-04 13:35:00,
2013-03-04 06:40:00,32.9,32.1,29.85,NNE,12,0.0,1.0,97,0.00,,,0.01,WeatherCatV1.14B232,2013-03-04 13:40:00,
2013-03-04 06:45:00,33.0,32.2,29.85,North,4,0.0,1.0,97,0.00,,,0.02,WeatherCatV1.14B232,2013-03-04 13:45:00,
2013-03-04 06:50:00,33.0,32.2,29.85,NNE,15,0.0,1.0,97,0.00,,,0.02,WeatherCatV1.14B232,2013-03-04 13:50:00,
2013-03-04 06:55:00,33.0,32.2,29.85,SSE,166,0.0,1.0,97,0.00,,,0.02,WeatherCatV1.14B232,2013-03-04 13:55:00,
2013-03-04 07:00:00,33.0,32.2,29.85,WSW,245,0.0,0.0,97,0.00,,,0.02,WeatherCatV1.14B232,2013-03-04 14:00:00,
2013-03-04 07:05:00,33.0,32.2,29.85,ENE,70,1.0,2.0,97,0.00,,,0.02,WeatherCatV1.14B232,2013-03-04 14:05:00,
2013-03-04 07:10:00,33.0,32.2,29.85,East,88,0.0,0.0,97,0.00,,,0.02,WeatherCatV1.14B232,2013-03-04 14:10:00,
2013-03-04 07:15:00,33.0,32.2,29.85,North,8,0.0,1.0,97,0.00,,,0.02,WeatherCatV1.14B232,2013-03-04 14:15:00,
2013-03-04 07:20:00,33.0,32.2,29.86,WNW,293,0.0,0.0,97,0.00,,,0.02,WeatherCatV1.14B232,2013-03-04 14:20:00,
2013-03-04 07:25:00,33.0,32.2,29.85,NNE,29,1.0,2.0,97,0.00,,,0.02,WeatherCatV1.14B232,2013-03-04 14:25:00,
2013-03-04 07:30:00,33.2,32.4,29.86,WNW,291,1.0,1.0,97,0.00,,,0.02,WeatherCatV1.14B232,2013-03-04 14:30:00,
2013-03-04 07:35:00,33.3,32.5,29.86,WNW,289,0.0,0.0,97,0.00,,,0.02,WeatherCatV1.14B232,2013-03-04 14:35:00,
2013-03-04 07:40:00,33.4,32.6,29.85,WSW,249,1.0,1.0,97,0.00,,,0.02,WeatherCatV1.14B232,2013-03-04 14:40:00,
2013-03-04 07:45:00,33.6,32.8,29.85,WSW,240,0.0,0.0,97,0.00,,,0.02,WeatherCatV1.14B232,2013-03-04 14:45:00,
2013-03-04 07:50:00,33.7,32.9,29.85,WSW,240,0.0,0.0,97,0.00,,,0.02,WeatherCatV1.14B232,2013-03-04 14:50:00,
2013-03-04 07:55:00,33.8,33.0,29.85,West,278,0.0,0.0,97,0.00,,,0.02,WeatherCatV1.14B232,2013-03-04 14:55:00,
2013-03-04 08:00:00,34.0,33.2,29.85,NNE,19,0.0,0.0,97,0.00,,,0.02,WeatherCatV1.14B232,2013-03-04 15:00:00,
2013-03-04 08:05:00,34.2,33.4,29.86,NNE,19,0.0,0.0,97,0.00,,,0.02,WeatherCatV1.14B232,2013-03-04 15:05:00,
2013-03-04 08:10:00,34.4,33.6,29.85,NE,46,0.0,0.0,97,0.00,,,0.02,WeatherCatV1.14B232,2013-03-04 15:10:00,
2013-03-04 08:15:00,34.7,33.7,29.85,NE,46,0.0,0.0,96,0.00,,,0.03,WeatherCatV1.14B232,2013-03-04 15:15:00,
2013-03-04 08:20:00,35.3,34.3,29.85,SE,127,0.0,2.0,96,0.00,,,0.03,WeatherCatV1.14B232,2013-03-04 15:20:00,
2013-03-04 08:25:00,35.5,34.2,29.85,South,180,1.0,1.0,95,0.05,,,0.04,WeatherCatV1.14B232,2013-03-04 15:25:00,
2013-03-04 08:30:00,35.7,34.1,29.85,SW,235,1.0,1.0,94,0.05,,,0.04,WeatherCatV1.14B232,2013-03-04 15:30:00,
2013-03-04 08:35:00,35.6,33.8,29.85,SE,138,0.0,0.0,93,0.05,,,0.04,WeatherCatV1.14B232,2013-03-04 15:35:00,
2013-03-04 08:40:00,35.6,33.8,29.85,SSE,164,1.0,1.0,93,0.05,,,0.05,WeatherCatV1.14B232,2013-03-04 15:40:00,
2013-03-04 08:45:00,35.8,34.2,29.84,SE,124,0.0,1.0,94,0.05,,,0.05,WeatherCatV1.14B232,2013-03-04 15:45:00,
2013-03-04 08:50:00,36.1,34.5,29.84,NNE,20,0.0,0.0,94,0.04,,,0.05,WeatherCatV1.14B232,2013-03-04 15:50:00,
2013-03-04 08:55:00,36.3,34.5,29.84,ESE,112,1.0,1.0,93,0.00,,,0.05,WeatherCatV1.14B232,2013-03-04 15:55:00,
2013-03-04 09:00:00,36.7,35.1,29.85,East,100,0.0,1.0,94,0.00,,,0.06,WeatherCatV1.14B232,2013-03-04 16:00:00,
2013-03-04 09:05:00,36.7,34.3,29.85,ESE,108,0.0,2.0,91,0.00,,,0.06,WeatherCatV1.14B232,2013-03-04 16:05:00,
2013-03-04 09:10:00,36.8,34.7,29.85,SE,146,0.0,1.0,92,0.00,,,0.06,WeatherCatV1.14B232,2013-03-04 16:10:00,
2013-03-04 09:15:00,36.9,34.5,29.85,ESE,109,0.0,0.0,91,0.00,,,0.06,WeatherCatV1.14B232,2013-03-04 16:15:00,
2013-03-04 09:20:00,37.2,34.8,29.85,ESE,102,0.0,1.0,91,0.00,,,0.06,WeatherCatV1.14B232,2013-03-04 16:20:00,
2013-03-04 09:25:00,37.5,34.8,29.85,SSE,158,2.0,2.0,90,0.00,,,0.06,WeatherCatV1.14B232,2013-03-04 16:25:00,
2013-03-04 09:30:00,37.6,34.9,29.85,SE,129,0.0,0.0,90,0.00,,,0.07,WeatherCatV1.14B232,2013-03-04 16:30:00,
2013-03-04 09:35:00,37.8,34.9,29.85,NE,44,3.0,3.0,89,0.00,,,0.07,WeatherCatV1.14B232,2013-03-04 16:35:00,
2013-03-04 09:40:00,37.6,34.7,29.84,SE,145,1.0,2.0,89,0.00,,,0.07,WeatherCatV1.14B232,2013-03-04 16:40:00,
2013-03-04 09:45:00,37.7,34.8,29.84,SSE,162,1.0,3.0,89,0.00,,,0.07,WeatherCatV1.14B232,2013-03-04 16:45:00,
2013-03-04 09:50:00,38.2,35.5,29.84,South,173,2.0,2.0,90,0.00,,,0.07,WeatherCatV1.14B232,2013-03-04 16:50:00,
2013-03-04 09:55:00,38.7,35.2,29.84,East,86,0.0,1.0,87,0.00,,,0.07,WeatherCatV1.14B232,2013-03-04 16:55:00,
2013-03-04 10:00:00,39.0,35.5,29.84,West,276,1.0,3.0,87,0.00,,,0.07,WeatherCatV1.14B232,2013-03-04 17:00:00,
2013-03-04 10:05:00,38.9,35.7,29.85,West,266,0.0,2.0,88,0.00,,,0.07,WeatherCatV1.14B232,2013-03-04 17:05:00,
2013-03-04 10:10:00,38.9,35.4,29.85,SSE,149,2.0,2.0,87,0.00,,,0.07,WeatherCatV1.14B232,2013-03-04 17:10:00,
2013-03-04 10:15:00,38.9,33.6,29.85,SE,144,0.0,5.0,81,0.00,,,0.07,WeatherCatV1.14B232,2013-03-04 17:15:00,
2013-03-04 10:20:00,39.0,34.0,29.84,ESE,121,1.0,1.0,82,0.00,,,0.07,WeatherCatV1.14B232,2013-03-04 17:20:00,
2013-03-04 10:25:00,39.5,34.2,29.84,ESE,115,2.0,3.0,81,0.00,,,0.07,WeatherCatV1.14B232,2013-03-04 17:25:00,
2013-03-04 10:30:00,40.0,34.0,29.84,ENE,58,1.0,1.0,79,0.00,,,0.07,WeatherCatV1.14B232,2013-03-04 17:30:00,
2013-03-04 10:35:00,40.1,33.8,29.84,North,5,1.0,2.0,78,0.00,,,0.07,WeatherCatV1.14B232,2013-03-04 17:35:00,
2013-03-04 10:40:00,40.2,33.6,29.84,NNE,29,2.0,3.0,77,0.00,,,0.07,WeatherCatV1.14B232,2013-03-04 17:40:00,
2013-03-04 10:45:00,40.3,34.3,29.83,NE,44,5.0,7.0,79,0.00,,,0.07,WeatherCatV1.14B232,2013-03-04 17:45:00,
2013-03-04 10:50:00,40.3,34.3,29.84,NW,320,2.0,3.0,79,0.00,,,0.07,WeatherCatV1.14B232,2013-03-04 17:50:00,
2013-03-04 10:55:00,40.1,32.8,29.84,NNW,345,2.0,3.0,75,0.00,,,0.07,WeatherCatV1.14B232,2013-03-04 17:55:00,
2013-03-04 11:00:00,39.8,32.5,29.83,ENE,58,1.0,1.0,75,0.00,,,0.07,WeatherCatV1.14B232,2013-03-04 18:00:00,
2013-03-04 11:05:00,40.0,31.7,29.83,ENE,58,0.0,0.0,72,0.00,,,0.07,WeatherCatV1.14B232,2013-03-04 18:05:00,
2013-03-04 11:10:00,40.6,31.9,29.83,East,94,0.0,1.0,71,0.00,,,0.07,WeatherCatV1.14B232,2013-03-04 18:10:00,
2013-03-04 11:15:00,40.8,32.5,29.83,WNW,301,0.0,0.0,72,0.00,,,0.07,WeatherCatV1.14B232,2013-03-04 18:15:00,
2013-03-04 11:20:00,41.2,32.9,29.83,West,267,1.0,2.0,72,0.00,,,0.07,WeatherCatV1.14B232,2013-03-04 18:20:00,
2013-03-04 11:25:00,41.2,32.2,29.83,NW,315,1.0,12.0,70,0.00,,,0.07,WeatherCatV1.14B232,2013-03-04 18:25:00,
2013-03-04 11:29:00,41.0,32.0,29.83,WNW,287,2.0,8.0,70,0.00,,,0.07,WeatherCatV1.14B232,2013-03-04 18:29:00,
2013-03-04 11:34:00,40.8,32.1,29.83,NNW,345,3.0,4.0,71,0.00,,,0.07,WeatherCatV1.14B232,2013-03-04 18:34:00,
2013-03-04 11:39:00,40.3,32.0,29.84,WNW,284,3.0,8.0,72,0.00,,,0.07,WeatherCatV1.14B232,2013-03-04 18:39:00,
2013-03-04 11:44:00,39.5,31.9,29.84,North,353,5.0,6.0,74,0.00,,,0.07,WeatherCatV1.14B232,2013-03-04 18:44:00,
2013-03-04 11:49:00,38.9,32.0,29.84,SW,236,1.0,5.0,76,0.00,,,0.07,WeatherCatV1.14B232,2013-03-04 18:49:00,
2013-03-04 11:54:00,38.7,32.4,29.83,NE,43,3.0,6.0,78,0.00,,,0.07,WeatherCatV1.14B232,2013-03-04 18:54:00,
2013-03-04 11:59:00,38.5,31.9,29.83,WNW,288,1.0,3.0,77,0.00,,,0.07,WeatherCatV1.14B232,2013-03-04 18:59:00,
2013-03-04 12:04:00,38.7,31.8,29.83,North,350,2.0,15.0,76,0.00,,,0.07,WeatherCatV1.14B232,2013-03-04 19:04:00,
2013-03-04 12:09:00,38.1,30.9,29.84,NW,314,6.0,16.0,75,0.00,,,0.07,WeatherCatV1.14B232,2013-03-04 19:09:00,
2013-03-04 12:14:00,37.7,31.2,29.84,WNW,301,1.0,10.0,77,0.00,,,0.08,WeatherCatV1.14B232,2013-03-04 19:14:00,
2013-03-04 12:19:00,37.6,31.1,29.84,NW,320,7.0,11.0,77,0.00,,,0.08,WeatherCatV1.14B232,2013-03-04 19:19:00,
2013-03-04 12:24:00,37.5,31.0,29.84,NNW,329,4.0,10.0,77,0.00,,,0.08,WeatherCatV1.14B232,2013-03-04 19:24:00,
2013-03-04 12:29:00,37.3,30.8,29.84,North,354,8.0,19.0,77,0.00,,,0.08,WeatherCatV1.14B232,2013-03-04 19:29:00,
2013-03-04 12:34:00,36.7,30.5,29.85,North,352,12.0,21.0,78,0.00,,,0.08,WeatherCatV1.14B232,2013-03-04 19:34:00,
2013-03-04 12:39:00,35.7,30.5,29.85,WNW,297,7.0,20.0,81,0.00,,,0.08,WeatherCatV1.14B232,2013-03-04 19:39:00,
2013-03-04 12:44:00,34.7,29.8,29.87,NNE,13,7.0,18.0,82,0.00,,,0.08,WeatherCatV1.14B232,2013-03-04 19:44:00,
2013-03-04 12:49:00,33.8,30.3,29.88,WSW,255,11.0,15.0,87,0.00,,,0.08,WeatherCatV1.14B232,2013-03-04 19:49:00,
2013-03-04 12:54:00,32.7,29.8,29.89,NW,316,13.0,18.0,89,0.00,,,0.08,WeatherCatV1.14B232,2013-03-04 19:54:00,
2013-03-04 12:59:00,31.8,28.4,29.90,North,4,17.0,19.0,87,0.00,,,0.08,WeatherCatV1.14B232,2013-03-04 19:59:00,
2013-03-04 13:04:00,31.5,27.8,29.91,North,4,5.0,24.0,86,0.00,,,0.08,WeatherCatV1.14B232,2013-03-04 20:04:00,
2013-03-04 13:09:00,31.1,28.0,29.91,NNW,345,10.0,12.0,88,0.00,,,0.08,WeatherCatV1.14B232,2013-03-04 20:09:00,
2013-03-04 13:14:00,31.0,27.6,29.91,NNE,16,3.0,11.0,87,0.00,,,0.08,WeatherCatV1.14B232,2013-03-04 20:14:00,
2013-03-04 13:19:00,31.1,27.7,29.91,NNW,332,3.0,5.0,87,0.00,,,0.08,WeatherCatV1.14B232,2013-03-04 20:19:00,
2013-03-04 13:24:00,31.5,27.8,29.92,WNW,289,1.0,5.0,86,0.00,,,0.08,WeatherCatV1.14B232,2013-03-04 20:24:00,
2013-03-04 13:29:00,32.4,27.8,29.92,South,187,1.0,2.0,83,0.00,,,0.08,WeatherCatV1.14B232,2013-03-04 20:29:00,
2013-03-04 13:34:00,33.7,29.1,29.92,East,100,2.0,2.0,83,0.00,,,0.08,WeatherCatV1.14B232,2013-03-04 20:34:00,
2013-03-04 13:39:00,34.8,26.0,29.92,West,281,6.0,12.0,70,0.00,,,0.08,WeatherCatV1.14B232,2013-03-04 20:39:00,
2013-03-04 13:44:00,35.7,23.2,29.92,North,354,10.0,14.0,60,0.00,,,0.08,WeatherCatV1.14B232,2013-03-04 20:44:00,
2013-03-04 13:49:00,35.9,21.8,29.93,NNW,328,9.0,18.0,56,0.00,,,0.08,WeatherCatV1.14B232,2013-03-04 20:49:00,
2013-03-04 13:54:00,36.0,19.6,29.93,WNW,284,9.0,15.0,51,0.00,,,0.08,WeatherCatV1.14B232,2013-03-04 20:54:00,
2013-03-04 13:59:00,36.3,20.4,29.93,WNW,300,9.0,17.0,52,0.00,,,0.08,WeatherCatV1.14B232,2013-03-04 20:59:00,
2013-03-04 14:04:00,36.7,20.3,29.94,NNW,327,12.0,15.0,51,0.00,,,0.08,WeatherCatV1.14B232,2013-03-04 21:04:00,
2013-03-04 14:09:00,36.9,19.1,29.95,WNW,291,4.0,15.0,48,0.00,,,0.08,WeatherCatV1.14B232,2013-03-04 21:09:00,
2013-03-04 14:14:00,37.0,19.2,29.95,NW,319,9.0,14.0,48,0.00,,,0.08,WeatherCatV1.14B232,2013-03-04 21:14:00,
2013-03-04 14:19:00,36.9,19.1,29.96,West,263,4.0,11.0,48,0.00,,,0.08,WeatherCatV1.14B232,2013-03-04 21:19:00,
2013-03-04 14:24:00,36.4,18.1,29.97,NW,312,7.0,13.0,47,0.00,,,0.08,WeatherCatV1.14B232,2013-03-04 21:24:00,
2013-03-04 14:29:00,35.9,18.1,29.97,WNW,291,6.0,11.0,48,0.00,,,0.08,WeatherCatV1.14B232,2013-03-04 21:29:00,
2013-03-04 14:34:00,35.6,17.4,29.97,NNE,14,17.0,22.0,47,0.00,,,0.08,WeatherCatV1.14B232,2013-03-04 21:34:00,
2013-03-04 14:39:00,35.3,17.1,29.97,NNW,332,12.0,21.0,47,0.00,,,0.08,WeatherCatV1.14B232,2013-03-04 21:39:00,
2013-03-04 14:44:00,35.2,16.0,29.98,NW,326,13.0,19.0,45,0.00,,,0.08,WeatherCatV1.14B232,2013-03-04 21:44:00,
2013-03-04 14:49:00,35.2,15.0,29.99,NNW,336,10.0,17.0,43,0.00,,,0.08,WeatherCatV1.14B232,2013-03-04 21:49:00,
2013-03-04 14:54:00,35.2,14.4,30.00,WNW,284,5.0,20.0,42,0.00,,,0.08,WeatherCatV1.14B232,2013-03-04 21:54:00,
2013-03-04 14:59:00,34.8,14.6,30.01,NNW,338,11.0,13.0,43,0.00,,,0.08,WeatherCatV1.14B232,2013-03-04 21:59:00,
2013-03-04 15:04:00,34.9,14.2,30.02,NNE,29,6.0,16.0,42,0.00,,,0.08,WeatherCatV1.14B232,2013-03-04 22:04:00,
2013-03-04 15:09:00,35.2,14.4,30.02,North,352,11.0,12.0,42,0.00,,,0.08,WeatherCatV1.14B232,2013-03-04 22:09:00,
2013-03-04 15:14:00,35.4,14.1,30.03,NNW,337,4.0,11.0,41,0.00,,,0.08,WeatherCatV1.14B232,2013-03-04 22:14:00,
2013-03-04 15:19:00,35.6,15.9,30.04,NNW,332,3.0,10.0,44,0.00,,,0.08,WeatherCatV1.14B232,2013-03-04 22:19:00,
2013-03-04 15:24:00,35.9,15.1,30.04,North,352,4.0,8.0,42,0.00,,,0.08,WeatherCatV1.14B232,2013-03-04 22:24:00,
2013-03-04 15:29:00,35.8,14.4,30.04,NNW,346,6.0,12.0,41,0.00,,,0.08,WeatherCatV1.14B232,2013-03-04 22:29:00,
2013-03-04 15:34:00,35.8,15.0,30.05,NW,307,5.0,12.0,42,0.00,,,0.08,WeatherCatV1.14B232,2013-03-04 22:34:00,
2013-03-04 15:39:00,36.0,15.2,30.06,WNW,296,6.0,17.0,42,0.00,,,0.08,WeatherCatV1.14B232,2013-03-04 22:39:00,
2013-03-04 15:44:00,36.1,15.3,30.06,WNW,300,5.0,10.0,42,0.00,,,0.08,WeatherCatV1.14B232,2013-03-04 22:44:00,
2013-03-04 15:49:00,36.0,14.6,30.07,NNW,340,12.0,14.0,41,0.00,,,0.08,WeatherCatV1.14B232,2013-03-04 22:49:00,
2013-03-04 15:54:00,36.1,14.7,30.07,NNW,338,9.0,20.0,41,0.00,,,0.08,WeatherCatV1.14B232,2013-03-04 22:54:00,
2013-03-04 15:59:00,35.6,13.1,30.08,WNW,300,14.0,16.0,39,0.00,,,0.08,WeatherCatV1.14B232,2013-03-04 22:59:00,
2013-03-04 16:04:00,35.0,13.1,30.08,NW,310,10.0,13.0,40,0.00,,,0.08,WeatherCatV1.14B232,2013-03-04 23:04:00,
2013-03-04 16:09:00,34.8,13.0,30.09,NW,321,9.0,18.0,40,0.00,,,0.08,WeatherCatV1.14B232,2013-03-04 23:09:00,
2013-03-04 16:14:00,34.8,13.0,30.09,North,358,5.0,9.0,40,0.00,,,0.08,WeatherCatV1.14B232,2013-03-04 23:14:00,
2013-03-04 16:19:00,34.5,12.7,30.10,NNW,327,13.0,14.0,40,0.00,,,0.08,WeatherCatV1.14B232,2013-03-04 23:19:00,
2013-03-04 16:24:00,34.3,12.5,30.11,NNW,338,11.0,13.0,40,0.00,,,0.08,WeatherCatV1.14B232,2013-03-04 23:24:00,
2013-03-04 16:29:00,34.0,12.2,30.11,NW,321,8.0,13.0,40,0.00,,,0.08,WeatherCatV1.14B232,2013-03-04 23:29:00,
2013-03-04 16:34:00,33.7,12.0,30.11,NW,325,9.0,14.0,40,0.00,,,0.08,WeatherCatV1.14B232,2013-03-04 23:34:00,
2013-03-04 16:39:00,33.6,12.4,30.12,NNW,338,8.0,15.0,41,0.00,,,0.08,WeatherCatV1.14B232,2013-03-04 23:39:00,
2013-03-04 16:44:00,33.5,11.8,30.12,North,1,7.0,9.0,40,0.00,,,0.08,WeatherCatV1.14B232,2013-03-04 23:44:00,
2013-03-04 16:49:00,33.4,11.7,30.13,NW,312,8.0,15.0,40,0.00,,,0.08,WeatherCatV1.14B232,2013-03-04 23:49:00,
2013-03-04 16:54:00,33.2,11.5,30.13,NNW,333,9.0,10.0,40,0.00,,,0.08,WeatherCatV1.14B232,2013-03-04 23:54:00,
2013-03-04 16:59:00,32.7,11.6,30.13,NNW,334,11.0,14.0,41,0.00,,,0.08,WeatherCatV1.14B232,2013-03-04 23:59:00,
2013-03-04 17:04:00,32.4,11.4,30.14,NNW,328,7.0,11.0,41,0.00,,,0.08,WeatherCatV1.14B232,2013-03-05 00:04:00,
2013-03-04 17:09:00,32.1,11.1,30.14,North,8,2.0,12.0,41,0.00,,,0.08,WeatherCatV1.14B232,2013-03-05 00:09:00,
2013-03-04 17:14:00,31.9,10.9,30.15,NNW,340,5.0,15.0,41,0.00,,,0.08,WeatherCatV1.14B232,2013-03-05 00:14:00,
2013-03-04 17:19:00,31.7,11.3,30.15,NNW,345,5.0,15.0,42,0.00,,,0.08,WeatherCatV1.14B232,2013-03-05 00:19:00,
2013-03-04 17:24:00,31.5,11.1,30.15,NW,316,5.0,16.0,42,0.00,,,0.08,WeatherCatV1.14B232,2013-03-05 00:24:00,
2013-03-04 17:29:00,31.3,10.9,30.16,WNW,284,5.0,12.0,42,0.00,,,0.08,WeatherCatV1.14B232,2013-03-05 00:29:00,
2013-03-04 17:34:00,31.2,10.8,30.16,NNW,336,6.0,13.0,42,0.00,,,0.08,WeatherCatV1.14B232,2013-03-05 00:34:00,
2013-03-04 17:39:00,31.0,11.2,30.16,WNW,285,2.0,13.0,43,0.00,,,0.08,WeatherCatV1.14B232,2013-03-05 00:39:00,
2013-03-04 17:44:00,30.8,11.0,30.16,North,359,10.0,10.0,43,0.00,,,0.08,WeatherCatV1.14B232,2013-03-05 00:44:00,
2013-03-04 17:49:00,30.6,11.3,30.16,WNW,287,4.0,12.0,44,0.00,,,0.08,WeatherCatV1.14B232,2013-03-05 00:49:00,
2013-03-04 17:54:00,30.3,11.5,30.17,West,263,3.0,7.0,45,0.00,,,0.08,WeatherCatV1.14B232,2013-03-05 00:54:00,
2013-03-04 17:59:00,30.1,11.8,30.17,WNW,294,4.0,7.0,46,0.00,,,0.08,WeatherCatV1.14B232,2013-03-05 00:59:00,
2013-03-04 18:04:00,30.0,11.8,30.18,West,280,0.0,5.0,46,0.00,,,0.08,WeatherCatV1.14B232,2013-03-05 01:04:00,
2013-03-04 18:09:00,29.9,11.7,30.18,NNW,346,0.0,4.0,46,0.00,,,0.08,WeatherCatV1.14B232,2013-03-05 01:09:00,
2013-03-04 18:14:00,29.7,11.5,30.19,ENE,62,4.0,7.0,46,0.00,,,0.08,WeatherCatV1.14B232,2013-03-05 01:14:00,
2013-03-04 18:20:00,29.6,11.4,30.20,NNE,29,1.0,4.0,46,0.00,,,0.08,WeatherCatV1.14B232,2013-03-05 01:20:00,
2013-03-04 18:25:00,29.5,10.8,30.20,WNW,297,2.0,6.0,45,0.00,,,0.08,WeatherCatV1.14B232,2013-03-05 01:25:00,
2013-03-04 18:30:00,29.3,11.1,30.21,NNW,342,2.0,3.0,46,0.00,,,0.08,WeatherCatV1.14B232,2013-03-05 01:30:00,
2013-03-04 18:35:00,29.2,11.5,30.21,West,273,4.0,4.0,47,0.00,,,0.08,WeatherCatV1.14B232,2013-03-05 01:35:00,
2013-03-04 18:40:00,28.7,12.0,30.22,SW,214,2.0,5.0,49,0.00,,,0.08,WeatherCatV1.14B232,2013-03-05 01:40:00,
2013-03-04 18:45:00,28.4,12.2,30.22,SW,232,1.0,2.0,50,0.00,,,0.08,WeatherCatV1.14B232,2013-03-05 01:45:00,
2013-03-04 18:50:00,28.2,12.4,30.22,SSE,167,0.0,3.0,51,0.00,,,0.08,WeatherCatV1.14B232,2013-03-05 01:50:00,
2013-03-04 18:55:00,27.8,12.9,30.23,SSW,194,0.0,0.0,53,0.00,,,0.08,WeatherCatV1.14B232,2013-03-05 01:55:00,
2013-03-04 19:00:00,27.2,13.2,30.24,SE,132,0.0,0.0,55,0.00,,,0.08,WeatherCatV1.14B232,2013-03-05 02:00:00,
2013-03-04 19:05:00,26.8,13.2,30.24,SE,134,0.0,0.0,56,0.00,,,0.08,WeatherCatV1.14B232,2013-03-05 02:05:00,
2013-03-04 19:10:00,26.5,13.7,30.25,SE,134,0.0,0.0,58,0.00,,,0.08,WeatherCatV1.14B232,2013-03-05 02:10:00,
2013-03-04 19:15:00,26.0,14.4,30.25,WNW,283,0.0,1.0,61,0.00,,,0.08,WeatherCatV1.14B232,2013-03-05 02:15:00,
2013-03-04 19:20:00,25.5,13.6,30.25,West,276,0.0,0.0,60,0.00,,,0.08,WeatherCatV1.14B232,2013-03-05 02:20:00,
2013-03-04 19:25:00,25.0,14.2,30.25,West,274,0.0,0.0,63,0.00,,,0.08,WeatherCatV1.14B232,2013-03-05 02:25:00,
2013-03-04 19:30:00,24.8,13.3,30.25,West,269,0.0,1.0,61,0.00,,,0.08,WeatherCatV1.14B232,2013-03-05 02:30:00,
2013-03-04 19:35:00,24.6,13.1,30.25,WSW,255,2.0,2.0,61,0.00,,,0.08,WeatherCatV1.14B232,2013-03-05 02:35:00,
2013-03-04 19:40:00,24.3,13.2,30.25,SSE,147,0.0,0.0,62,0.00,,,0.08,WeatherCatV1.14B232,2013-03-05 02:40:00,
2013-03-04 19:45:00,23.9,12.8,30.26,ESE,117,1.0,1.0,62,0.00,,,0.08,WeatherCatV1.14B232,2013-03-05 02:45:00,
2013-03-04 19:50:00,23.9,13.2,30.27,SE,143,1.0,4.0,63,0.00,,,0.08,WeatherCatV1.14B232,2013-03-05 02:50:00,
2013-03-04 19:55:00,23.9,13.2,30.27,West,262,2.0,2.0,63,0.00,,,0.08,WeatherCatV1.14B232,2013-03-05 02:55:00,
2013-03-04 20:00:00,23.7,12.6,30.28,SW,224,1.0,2.0,62,0.00,,,0.08,WeatherCatV1.14B232,2013-03-05 03:00:00,
2013-03-04 20:05:00,23.6,12.9,30.28,WSW,258,0.0,1.0,63,0.00,,,0.08,WeatherCatV1.14B232,2013-03-05 03:05:00,
2013-03-04 20:10:00,23.5,12.1,30.28,West,270,3.0,4.0,61,0.00,,,0.08,WeatherCatV1.14B232,2013-03-05 03:10:00,
2013-03-04 20:15:00,24.0,11.0,30.28,WSW,245,5.0,5.0,57,0.00,,,0.08,WeatherCatV1.14B232,2013-03-05 03:15:00,
2013-03-04 20:20:00,24.1,11.5,30.28,NNW,330,0.0,2.0,58,0.00,,,0.08,WeatherCatV1.14B232,2013-03-05 03:20:00,
2013-03-04 20:25:00,23.9,12.4,30.29,East,101,2.0,2.0,61,0.00,,,0.08,WeatherCatV1.14B232,2013-03-05 03:25:00,
2013-03-04 20:30:00,23.7,13.0,30.30,ESE,105,1.0,2.0,63,0.00,,,0.08,WeatherCatV1.14B232,2013-03-05 03:30:00,
2013-03-04 20:35:00,23.2,13.2,30.30,South,187,2.0,3.0,65,0.00,,,0.08,WeatherCatV1.14B232,2013-03-05 03:35:00,
2013-03-04 20:40:00,22.7,13.4,30.30,SSW,209,0.0,1.0,67,0.00,,,0.08,WeatherCatV1.14B232,2013-03-05 03:40:00,
2013-03-04 20:45:00,22.3,12.7,30.31,SSW,208,1.0,2.0,66,0.00,,,0.08,WeatherCatV1.14B232,2013-03-05 03:45:00,
2013-03-04 20:50:00,22.3,12.3,30.30,SW,214,0.0,0.0,65,0.00,,,0.08,WeatherCatV1.14B232,2013-03-05 03:50:00,
2013-03-04 20:55:00,22.3,12.3,30.31,ESE,116,1.0,2.0,65,0.00,,,0.08,WeatherCatV1.14B232,2013-03-05 03:55:00,
2013-03-04 21:00:00,22.0,13.1,30.32,SSW,212,0.0,3.0,68,0.00,,,0.08,WeatherCatV1.14B232,2013-03-05 04:00:00,
2013-03-04 21:05:00,21.7,12.8,30.32,SW,219,0.0,2.0,68,0.00,,,0.08,WeatherCatV1.14B232,2013-03-05 04:05:00,
2013-03-04 21:10:00,21.4,12.5,30.32,WSW,246,0.0,0.0,68,0.00,,,0.08,WeatherCatV1.14B232,2013-03-05 04:10:00,
2013-03-04 21:15:00,21.1,11.5,30.32,SW,236,0.0,0.0,66,0.00,,,0.08,WeatherCatV1.14B232,2013-03-05 04:15:00,
2013-03-04 21:20:00,20.9,11.7,30.33,SW,236,0.0,0.0,67,0.00,,,0.08,WeatherCatV1.14B232,2013-03-05 04:20:00,
2013-03-04 21:25:00,20.4,12.2,30.33,SW,236,0.0,0.0,70,0.00,,,0.08,WeatherCatV1.14B232,2013-03-05 04:25:00,
2013-03-04 21:30:00,20.1,13.5,30.33,WSW,249,0.0,1.0,75,0.00,,,0.08,WeatherCatV1.14B232,2013-03-05 04:30:00,
2013-03-04 21:35:00,20.0,12.5,30.34,NNE,30,0.0,0.0,72,0.00,,,0.08,WeatherCatV1.14B232,2013-03-05 04:35:00,
2013-03-04 21:40:00,19.8,13.2,30.34,West,265,0.0,0.0,75,0.00,,,0.08,WeatherCatV1.14B232,2013-03-05 04:40:00,
2013-03-04 21:45:00,19.6,12.4,30.34,North,358,0.0,1.0,73,0.00,,,0.08,WeatherCatV1.14B232,2013-03-05 04:45:00,
2013-03-04 21:50:00,19.4,12.8,30.35,SW,231,3.0,3.0,75,0.00,,,0.08,WeatherCatV1.14B232,2013-03-05 04:50:00,
2013-03-04 21:55:00,19.3,11.5,30.35,WSW,249,0.0,1.0,71,0.00,,,0.08,WeatherCatV1.14B232,2013-03-05 04:55:00,
2013-03-04 22:00:00,19.4,12.2,30.35,NE,40,3.0,3.0,73,0.00,,,0.08,WeatherCatV1.14B232,2013-03-05 05:00:00,
2013-03-04 22:05:00,19.4,11.6,30.35,NE,44,0.0,1.0,71,0.00,,,0.08,WeatherCatV1.14B232,2013-03-05 05:05:00,
2013-03-04 22:10:00,19.2,12.0,30.35,SW,228,0.0,2.0,73,0.00,,,0.08,WeatherCatV1.14B232,2013-03-05 05:10:00,
2013-03-04 22:15:00,18.9,11.1,30.35,SE,131,0.0,1.0,71,0.00,,,0.08,WeatherCatV1.14B232,2013-03-05 05:15:00,
2013-03-04 22:20:00,18.5,11.3,30.36,SSE,153,1.0,1.0,73,0.00,,,0.08,WeatherCatV1.14B232,2013-03-05 05:20:00,
2013-03-04 22:25:00,18.1,10.9,30.36,East,86,0.0,0.0,73,0.00,,,0.08,WeatherCatV1.14B232,2013-03-05 05:25:00,
2013-03-04 22:30:00,18.0,11.1,30.36,NNE,25,0.0,0.0,74,0.00,,,0.08,WeatherCatV1.14B232,2013-03-05 05:30:00,
2013-03-04 22:35:00,17.8,11.2,30.36,SW,229,1.0,1.0,75,0.00,,,0.08,WeatherCatV1.14B232,2013-03-05 05:35:00,
2013-03-04 22:40:00,17.6,10.8,30.36,South,172,0.0,1.0,74,0.00,,,0.08,WeatherCatV1.14B232,2013-03-05 05:40:00,
2013-03-04 22:45:00,17.4,10.3,30.37,SSE,158,1.0,1.0,73,0.00,,,0.08,WeatherCatV1.14B232,2013-03-05 05:45:00,
2013-03-04 22:50:00,17.1,10.3,30.37,SSW,212,1.0,1.0,74,0.00,,,0.08,WeatherCatV1.14B232,2013-03-05 05:50:00,
2013-03-04 22:55:00,17.1,10.3,30.36,NW,314,0.0,0.0,74,0.00,,,0.08,WeatherCatV1.14B232,2013-03-05 05:55:00,
2013-03-04 23:00:00,16.9,9.8,30.37,SSW,201,0.0,0.0,73,0.00,,,0.08,WeatherCatV1.14B232,2013-03-05 06:00:00,
2013-03-04 23:05:00,16.7,10.2,30.37,NNW,327,0.0,0.0,75,0.00,,,0.08,WeatherCatV1.14B232,2013-03-05 06:05:00,
2013-03-04 23:10:00,16.6,10.1,30.38,ESE,121,0.0,1.0,75,0.00,,,0.08,WeatherCatV1.14B232,2013-03-05 06:10:00,
2013-03-04 23:15:00,16.6,9.5,30.38,West,262,0.0,0.0,73,0.00,,,0.08,WeatherCatV1.14B232,2013-03-05 06:15:00,
2013-03-04 23:20:00,16.4,9.9,30.38,West,262,0.0,1.0,75,0.00,,,0.08,WeatherCatV1.14B232,2013-03-05 06:20:00,
2013-03-04 23:25:00,16.0,9.5,30.39,South,171,0.0,0.0,75,0.00,,,0.08,WeatherCatV1.14B232,2013-03-05 06:25:00,
2013-03-04 23:30:00,15.7,9.8,30.39,South,170,0.0,0.0,77,0.00,,,0.08,WeatherCatV1.14B232,2013-03-05 06:30:00,
2013-03-04 23:35:00,15.5,9.9,30.39,WSW,243,0.0,0.0,78,0.00,,,0.08,WeatherCatV1.14B232,2013-03-05 06:35:00,
2013-03-04 23:40:00,15.5,9.9,30.39,WSW,243,0.0,0.0,78,0.00,,,0.08,WeatherCatV1.14B232,2013-03-05 06:40:00,
2013-03-04 23:45:00,15.4,10.4,30.39,WSW,242,0.0,0.0,80,0.00,,,0.08,WeatherCatV1.14B232,2013-03-05 06:45:00,
2013-03-04 23:50:00,15.3,10.0,30.40,SSE,155,0.0,0.0,79,0.00,,,0.08,WeatherCatV1.14B232,2013-03-05 06:50:00,
2013-03-04 23:55:00,15.3,10.0,30.41,ESE,122,0.0,0.0,79,0.00,,,0.08,WeatherCatV1.14B232,2013-03-05 06:55:00,